Time,TemperatureF,DewpointF,PressureIn,WindDirection,WindDirectionDegrees,WindSpeedMPH,WindSpeedGustMPH,Humidity,HourlyPrecipIn,Conditions,Clouds,dailyrainin,SoftwareType,DateUTC
2013-03-18 00:07:00,26.3,22.0,30.22,East,85,8.0,-999.0,83,-99.99,,,0.00,weatherlink.com 1.10,2013-03-18 04:07:00,
2013-03-18 00:22:00,26.5,22.0,30.21,East,82,6.0,-999.0,83,-99.99,,,0.00,weatherlink.com 1.10,2013-03-18 04:22:00,
2013-03-18 00:37:00,26.5,22.0,30.20,ENE,71,8.0,-999.0,83,-99.99,,,0.00,weatherlink.com 1.10,2013-03-18 04:37:00,
2013-03-18 00:52:00,26.6,22.0,30.19,East,79,5.0,-999.0,83,-99.99,,,0.00,weatherlink.com 1.10,2013-03-18 04:52:00,
2013-03-18 01:07:00,26.8,22.0,30.19,ENE,68,7.0,-999.0,83,-99.99,,,0.00,weatherlink.com 1.10,2013-03-18 05:07:00,
2013-03-18 01:22:00,27.0,23.0,30.18,ENE,72,6.0,-999.0,83,-99.99,,,0.00,weatherlink.com 1.10,2013-03-18 05:22:00,
2013-03-18 01:37:00,27.0,23.0,30.17,ENE,64,8.0,-999.0,83,-99.99,,,0.00,weatherlink.com 1.10,2013-03-18 05:37:00,
2013-03-18 01:52:00,27.2,23.0,30.17,ENE,69,5.0,-999.0,83,-99.99,,,0.00,weatherlink.com 1.10,2013-03-18 05:52:00,
2013-03-18 02:07:00,27.3,23.0,30.16,ENE,73,6.0,-999.0,84,-99.99,,,0.00,weatherlink.com 1.10,2013-03-18 06:07:00,
2013-03-18 02:22:00,27.8,24.0,30.16,ENE,60,3.0,-999.0,85,-99.99,,,0.00,weatherlink.com 1.10,2013-03-18 06:22:00,
2013-03-18 02:37:00,28.7,25.0,30.16,SE,124,6.0,-999.0,84,-99.99,,,0.00,weatherlink.com 1.10,2013-03-18 06:37:00,
2013-03-18 02:52:00,30.4,25.0,30.16,ESE,119,11.0,-999.0,80,-99.99,,,0.00,weatherlink.com 1.10,2013-03-18 06:52:00,
2013-03-18 03:07:00,30.6,25.0,30.15,East,83,14.0,-999.0,80,-99.99,,,0.00,weatherlink.com 1.10,2013-03-18 07:07:00,
2013-03-18 03:22:00,30.8,25.0,30.13,ENE,78,7.0,-999.0,80,-99.99,,,0.00,weatherlink.com 1.10,2013-03-18 07:22:00,
2013-03-18 03:37:00,31.0,26.0,30.13,East,90,8.0,-999.0,80,-99.99,,,0.00,weatherlink.com 1.10,2013-03-18 07:37:00,
2013-03-18 03:52:00,31.1,26.0,30.11,East,80,9.0,-999.0,80,-99.99,,,0.00,weatherlink.com 1.10,2013-03-18 07:52:00,
2013-03-18 04:07:00,31.3,26.0,30.09,ENE,78,13.0,-999.0,81,-99.99,,,0.00,weatherlink.com 1.10,2013-03-18 08:07:00,
2013-03-18 04:22:00,31.3,26.0,30.08,ESE,114,9.0,-999.0,82,-99.99,,,0.00,weatherlink.com 1.10,2013-03-18 08:22:00,
2013-03-18 04:37:00,31.3,26.0,30.06,East,81,9.0,-999.0,82,-99.99,,,0.00,weatherlink.com 1.10,2013-03-18 08:37:00,
2013-03-18 04:52:00,31.5,26.0,30.06,ESE,121,14.0,-999.0,81,-99.99,,,0.00,weatherlink.com 1.10,2013-03-18 08:52:00,
2013-03-18 05:07:00,31.6,26.0,30.04,East,82,7.0,-999.0,80,-99.99,,,0.00,weatherlink.com 1.10,2013-03-18 09:07:00,
2013-03-18 05:22:00,31.7,26.0,30.04,East,79,10.0,-999.0,80,-99.99,,,0.00,weatherlink.com 1.10,2013-03-18 09:22:00,
2013-03-18 05:37:00,31.8,27.0,30.03,East,79,9.0,-999.0,81,-99.99,,,0.00,weatherlink.com 1.10,2013-03-18 09:37:00,
2013-03-18 05:52:00,32.0,27.0,30.02,ESE,103,8.0,-999.0,81,-99.99,,,0.00,weatherlink.com 1.10,2013-03-18 09:52:00,
2013-03-18 06:07:00,32.0,27.0,30.01,ENE,72,14.0,-999.0,81,-99.99,,,0.00,weatherlink.com 1.10,2013-03-18 10:07:00,
2013-03-18 06:22:00,32.1,27.0,30.00,ESE,121,12.0,-999.0,81,-99.99,,,0.00,weatherlink.com 1.10,2013-03-18 10:22:00,
2013-03-18 06:37:00,-999.0,-99.9,30.00,North,-999,-999.0,-999.0,-999,-99.99,,,0.00,weatherlink.com 1.10,2013-03-18 10:37:00,
2013-03-18 06:52:00,-999.0,-99.9,29.98,North,-999,-999.0,-999.0,-999,-99.99,,,0.00,weatherlink.com 1.10,2013-03-18 10:52:00,
2013-03-18 07:07:00,-999.0,-99.9,29.97,North,-999,-999.0,-999.0,-999,-99.99,,,0.00,weatherlink.com 1.10,2013-03-18 11:07:00,
2013-03-18 07:22:00,-999.0,-99.9,29.97,North,-999,-999.0,-999.0,-999,-99.99,,,0.00,weatherlink.com 1.10,2013-03-18 11:22:00,
2013-03-18 07:37:00,-999.0,-99.9,29.96,North,-999,-999.0,-999.0,-999,-99.99,,,0.00,weatherlink.com 1.10,2013-03-18 11:37:00,
2013-03-18 07:52:00,-999.0,-99.9,29.95,North,-999,-999.0,-999.0,-999,-99.99,,,0.00,weatherlink.com 1.10,2013-03-18 11:52:00,
2013-03-18 08:07:00,-999.0,-99.9,29.95,North,-999,-999.0,-999.0,-999,-99.99,,,0.00,weatherlink.com 1.10,2013-03-18 12:07:00,
2013-03-18 08:22:00,-999.0,-99.9,29.95,North,-999,-999.0,-999.0,-999,-99.99,,,0.00,weatherlink.com 1.10,2013-03-18 12:22:00,
2013-03-18 08:37:00,-999.0,-99.9,29.94,North,-999,-999.0,-999.0,-999,-99.99,,,0.00,weatherlink.com 1.10,2013-03-18 12:37:00,
2013-03-18 08:52:00,-999.0,-99.9,29.93,North,-999,-999.0,-999.0,-999,-99.99,,,0.00,weatherlink.com 1.10,2013-03-18 12:52:00,
2013-03-18 09:07:00,31.8,29.0,29.92,ENE,69,9.0,-999.0,88,-99.99,,,0.00,weatherlink.com 1.10,2013-03-18 13:07:00,
2013-03-18 09:22:00,31.6,29.0,29.89,ENE,71,6.0,-999.0,89,-99.99,,,0.00,weatherlink.com 1.10,2013-03-18 13:22:00,
2013-03-18 09:37:00,31.8,29.0,29.90,ENE,72,10.0,-999.0,89,-99.99,,,0.00,weatherlink.com 1.10,2013-03-18 13:37:00,
2013-03-18 09:52:00,32.2,29.0,29.89,East,96,11.0,-999.0,88,-99.99,,,0.00,weatherlink.com 1.10,2013-03-18 13:52:00,
2013-03-18 10:07:00,32.1,29.0,29.88,East,98,11.0,-999.0,88,-99.99,,,0.00,weatherlink.com 1.10,2013-03-18 14:07:00,
2013-03-18 10:22:00,32.1,29.0,29.87,ENE,61,13.0,-999.0,88,-99.99,,,0.00,weatherlink.com 1.10,2013-03-18 14:22:00,
2013-03-18 10:37:00,32.1,30.0,29.86,ENE,66,15.0,-999.0,90,-99.99,,,0.00,weatherlink.com 1.10,2013-03-18 14:37:00,
2013-03-18 10:52:00,32.3,30.0,29.85,East,87,15.0,-999.0,91,-99.99,,,0.00,weatherlink.com 1.10,2013-03-18 14:52:00,
2013-03-18 11:07:00,32.4,30.0,29.84,ENE,72,8.0,-999.0,92,-99.99,,,0.00,weatherlink.com 1.10,2013-03-18 15:07:00,
2013-03-18 11:22:00,32.5,31.0,29.82,East,84,18.0,-999.0,93,-99.99,,,0.00,weatherlink.com 1.10,2013-03-18 15:22:00,
2013-03-18 11:37:00,32.5,31.0,29.82,ESE,107,10.0,-999.0,93,-99.99,,,0.00,weatherlink.com 1.10,2013-03-18 15:37:00,
2013-03-18 11:52:00,32.8,31.0,29.81,ENE,63,8.0,-999.0,94,-99.99,,,0.00,weatherlink.com 1.10,2013-03-18 15:52:00,
2013-03-18 12:07:00,32.9,31.0,29.81,NE,52,14.0,-999.0,94,-99.99,,,0.00,weatherlink.com 1.10,2013-03-18 16:07:00,
2013-03-18 12:22:00,33.1,32.0,29.80,ENE,77,9.0,-999.0,94,-99.99,,,0.00,weatherlink.com 1.10,2013-03-18 16:22:00,
2013-03-18 12:37:00,33.3,32.0,29.80,ENE,58,11.0,-999.0,95,-99.99,,,0.00,weatherlink.com 1.10,2013-03-18 16:37:00,
2013-03-18 12:52:00,33.4,32.0,29.79,ENE,71,5.0,-999.0,95,-99.99,,,0.00,weatherlink.com 1.10,2013-03-18 16:52:00,
2013-03-18 13:07:00,33.5,33.0,29.79,East,97,10.0,-999.0,96,-99.99,,,0.00,weatherlink.com 1.10,2013-03-18 17:07:00,
2013-03-18 13:22:00,33.7,33.0,29.77,East,100,9.0,-999.0,96,-99.99,,,0.00,weatherlink.com 1.10,2013-03-18 17:22:00,
2013-03-18 13:37:00,33.9,33.0,29.76,East,81,14.0,-999.0,96,-99.99,,,0.00,weatherlink.com 1.10,2013-03-18 17:37:00,
2013-03-18 13:52:00,34.1,33.0,29.74,East,98,9.0,-999.0,96,-99.99,,,0.00,weatherlink.com 1.10,2013-03-18 17:52:00,
2013-03-18 14:22:00,34.5,34.0,29.72,ENE,72,9.0,-999.0,97,-99.99,,,0.00,weatherlink.com 1.10,2013-03-18 18:22:00,
2013-03-18 14:37:00,34.7,34.0,29.71,East,87,7.0,-999.0,97,-99.99,,,0.00,weatherlink.com 1.10,2013-03-18 18:37:00,
2013-03-18 14:52:00,34.9,34.0,29.69,East,91,11.0,-999.0,97,-99.99,,,0.00,weatherlink.com 1.10,2013-03-18 18:52:00,
2013-03-18 15:07:00,35.2,35.0,29.68,East,87,10.0,-999.0,97,-99.99,,,0.00,weatherlink.com 1.10,2013-03-18 19:07:00,
2013-03-18 15:22:00,35.4,35.0,29.66,East,96,6.0,-999.0,97,-99.99,,,0.00,weatherlink.com 1.10,2013-03-18 19:22:00,
2013-03-18 15:37:00,35.5,35.0,29.64,ESE,107,11.0,-999.0,97,-99.99,,,0.00,weatherlink.com 1.10,2013-03-18 19:37:00,
2013-03-18 15:52:00,35.6,35.0,29.61,ENE,73,10.0,-999.0,96,-99.99,,,0.00,weatherlink.com 1.10,2013-03-18 19:52:00,
2013-03-18 16:07:00,35.9,35.0,29.63,SSE,158,5.0,-999.0,96,-99.99,,,0.00,weatherlink.com 1.10,2013-03-18 20:07:00,
2013-03-18 16:22:00,35.9,35.0,29.65,East,94,10.0,-999.0,96,-99.99,,,0.00,weatherlink.com 1.10,2013-03-18 20:22:00,
2013-03-18 16:37:00,35.9,35.0,29.64,East,82,7.0,-999.0,96,-99.99,,,0.00,weatherlink.com 1.10,2013-03-18 20:37:00,
2013-03-18 16:52:00,36.0,35.0,29.62,ESE,107,7.0,-999.0,97,-99.99,,,0.00,weatherlink.com 1.10,2013-03-18 20:52:00,
2013-03-18 17:07:00,36.1,35.0,29.61,ESE,118,4.0,-999.0,97,-99.99,,,0.00,weatherlink.com 1.10,2013-03-18 21:07:00,
2013-03-18 17:22:00,36.2,36.0,29.61,East,86,5.0,-999.0,97,-99.99,,,0.00,weatherlink.com 1.10,2013-03-18 21:22:00,
2013-03-18 17:37:00,36.2,36.0,29.60,ESE,103,9.0,-999.0,97,-99.99,,,0.00,weatherlink.com 1.10,2013-03-18 21:37:00,
2013-03-18 17:52:00,36.2,36.0,29.60,SE,125,3.0,-999.0,97,-99.99,,,0.00,weatherlink.com 1.10,2013-03-18 21:52:00,
2013-03-18 18:07:00,36.2,36.0,29.60,East,85,7.0,-999.0,97,-99.99,,,0.00,weatherlink.com 1.10,2013-03-18 22:07:00,
2013-03-18 18:22:00,36.1,35.0,29.61,ESE,117,1.0,-999.0,97,-99.99,,,0.00,weatherlink.com 1.10,2013-03-18 22:22:00,
2013-03-18 18:37:00,36.4,36.0,29.60,ESE,111,2.0,-999.0,97,-99.99,,,0.01,weatherlink.com 1.10,2013-03-18 22:37:00,
2013-03-18 18:52:00,36.5,36.0,29.59,ESE,103,1.0,-999.0,97,-99.99,,,0.01,weatherlink.com 1.10,2013-03-18 22:52:00,
2013-03-18 19:07:00,36.6,36.0,29.60,South,187,0.0,-999.0,97,-99.99,,,0.02,weatherlink.com 1.10,2013-03-18 23:07:00,
2013-03-18 19:22:00,36.5,36.0,29.60,SW,233,4.0,-999.0,97,-99.99,,,0.02,weatherlink.com 1.10,2013-03-18 23:22:00,
2013-03-18 19:37:00,36.7,36.0,29.61,SSW,207,0.0,-999.0,97,-99.99,,,0.02,weatherlink.com 1.10,2013-03-18 23:37:00,
2013-03-18 19:52:00,37.0,36.0,29.61,SSW,209,3.0,-999.0,97,-99.99,,,0.03,weatherlink.com 1.10,2013-03-18 23:52:00,
2013-03-18 20:07:00,37.3,37.0,29.61,West,269,4.0,-999.0,97,-99.99,,,0.03,weatherlink.com 1.10,2013-03-19 00:07:00,
2013-03-18 20:22:00,37.2,37.0,29.63,SW,214,7.0,-999.0,97,-99.99,,,0.03,weatherlink.com 1.10,2013-03-19 00:22:00,
2013-03-18 20:37:00,37.0,36.0,29.63,West,277,4.0,-999.0,97,-99.99,,,0.03,weatherlink.com 1.10,2013-03-19 00:37:00,
2013-03-18 20:52:00,36.8,36.0,29.64,West,265,6.0,-999.0,96,-99.99,,,0.03,weatherlink.com 1.10,2013-03-19 00:52:00,
2013-03-18 21:07:00,36.7,36.0,29.65,West,270,5.0,-999.0,96,-99.99,,,0.03,weatherlink.com 1.10,2013-03-19 01:07:00,
2013-03-18 21:22:00,36.7,35.0,29.65,SW,219,2.0,-999.0,95,-99.99,,,0.03,weatherlink.com 1.10,2013-03-19 01:22:00,
2013-03-18 21:37:00,36.7,35.0,29.66,NW,321,3.0,-999.0,95,-99.99,,,0.03,weatherlink.com 1.10,2013-03-19 01:37:00,
2013-03-18 21:52:00,36.7,35.0,29.67,NW,311,5.0,-999.0,95,-99.99,,,0.03,weatherlink.com 1.10,2013-03-19 01:52:00,
2013-03-18 22:07:00,36.6,35.0,29.67,West,273,2.0,-999.0,94,-99.99,,,0.03,weatherlink.com 1.10,2013-03-19 02:07:00,
2013-03-18 22:22:00,36.5,35.0,29.68,SE,135,3.0,-999.0,94,-99.99,,,0.03,weatherlink.com 1.10,2013-03-19 02:22:00,
2013-03-18 22:37:00,36.5,35.0,29.68,SSW,211,3.0,-999.0,94,-99.99,,,0.03,weatherlink.com 1.10,2013-03-19 02:37:00,
2013-03-18 22:52:00,36.4,35.0,29.68,South,174,3.0,-999.0,93,-99.99,,,0.03,weatherlink.com 1.10,2013-03-19 02:52:00,
2013-03-18 23:07:00,36.2,34.0,29.68,WSW,248,4.0,-999.0,92,-99.99,,,0.03,weatherlink.com 1.10,2013-03-19 03:07:00,
2013-03-18 23:22:00,36.1,34.0,29.69,NNW,338,6.0,-999.0,91,-99.99,,,0.03,weatherlink.com 1.10,2013-03-19 03:22:00,
2013-03-18 23:37:00,36.0,34.0,29.70,WSW,250,4.0,-999.0,91,-99.99,,,0.03,weatherlink.com 1.10,2013-03-19 03:37:00,
2013-03-18 23:52:00,36.0,34.0,29.70,SW,224,4.0,-999.0,91,-99.99,,,0.03,weatherlink.com 1.10,2013-03-19 03:52:00,